createdAt,value
2022-08-14T00:00:07.233Z,4.37
2022-08-14T00:02:38.664Z,4.90
2022-08-14T00:05:06.910Z,5.03
2022-08-14T00:07:34.485Z,4.90
2022-08-14T00:10:50.107Z,4.97
2022-08-14T00:12:56.233Z,4.90
2022-08-14T00:15:26.661Z,5.20
2022-08-14T00:17:57.218Z,5.40
2022-08-14T00:20:30.246Z,4.60
2022-08-14T00:22:58.925Z,5.10
2022-08-14T00:25:42.385Z,6.30
2022-08-14T00:28:15.546Z,5.90
2022-08-14T00:30:45.366Z,5.40
2022-08-14T00:33:15.250Z,5.43
2022-08-14T00:36:35.716Z,6.00
2022-08-14T00:38:31.993Z,5.07
2022-08-14T00:41:01.970Z,5.00
2022-08-14T00:43:32.389Z,4.90
2022-08-14T00:46:02.349Z,5.37
2022-08-14T00:48:34.433Z,5.20
2022-08-14T00:51:04.686Z,5.30
2022-08-14T00:53:31.890Z,5.67
2022-08-14T00:55:59.970Z,5.30
2022-08-14T00:58:27.778Z,5.43
2022-08-14T01:01:02.009Z,5.63
2022-08-14T01:03:29.357Z,5.80
2022-08-14T01:05:58.986Z,6.60
2022-08-14T01:08:51.769Z,5.40
2022-08-14T01:11:15.781Z,5.83
2022-08-14T01:13:50.789Z,6.00
2022-08-14T01:16:28.082Z,5.43
2022-08-14T01:19:02.068Z,6.30
2022-08-14T01:21:34.587Z,5.03
2022-08-14T01:24:02.258Z,6.53
2022-08-14T01:26:35.241Z,6.10
2022-08-14T01:29:06.773Z,6.30
2022-08-14T01:31:38.874Z,5.37
2022-08-14T01:35:18.066Z,6.10
2022-08-14T01:36:55.503Z,6.70
2022-08-14T01:39:22.850Z,6.50
2022-08-14T01:41:50.669Z,5.90
2022-08-14T01:44:32.089Z,6.80
2022-08-14T01:47:01.815Z,6.20
2022-08-14T01:49:35.167Z,6.90
2022-08-14T01:52:08.911Z,6.47
2022-08-14T01:54:40.778Z,7.30
2022-08-14T01:57:10.424Z,6.20
2022-08-14T01:59:38.733Z,6.93
2022-08-14T02:02:10.965Z,7.53
2022-08-14T02:04:55.456Z,6.37
2022-08-14T02:07:34.913Z,7.30
2022-08-14T02:10:12.841Z,7.10
2022-08-14T02:12:42.837Z,7.47
2022-08-14T02:15:10.273Z,8.97
2022-08-14T02:17:37.899Z,8.00
2022-08-14T02:20:06.374Z,7.70
2022-08-14T02:22:34.924Z,7.53
2022-08-14T02:25:14.397Z,7.00
2022-08-14T02:28:25.152Z,8.63
2022-08-14T02:30:31.584Z,7.70
2022-08-14T02:32:58.831Z,7.60
2022-08-14T02:35:26.512Z,8.33
2022-08-14T02:38:01.135Z,8.50
2022-08-14T02:40:33.815Z,7.73
2022-08-14T02:43:02.730Z,7.00
2022-08-14T02:45:33.548Z,8.37
2022-08-14T02:48:06.531Z,7.57
2022-08-14T02:50:37.824Z,7.73
2022-08-14T02:53:08.707Z,8.03
2022-08-14T02:55:36.420Z,7.60
2022-08-14T02:58:05.918Z,7.30
2022-08-14T03:00:34.458Z,9.10
2022-08-14T03:03:02.017Z,8.43
2022-08-14T03:05:29.646Z,8.03
2022-08-14T03:08:08.912Z,8.47
2022-08-14T03:10:36.639Z,8.67
2022-08-14T03:13:13.743Z,8.50
2022-08-14T03:15:47.116Z,9.40
2022-08-14T03:18:18.543Z,9.30
2022-08-14T03:20:46.446Z,8.23
2022-08-14T03:23:14.975Z,8.97
2022-08-14T03:25:43.723Z,9.53
2022-08-14T03:28:14.835Z,8.50
2022-08-14T03:30:57.213Z,8.30
2022-08-14T03:33:28.019Z,8.40
2022-08-14T03:37:28.834Z,7.20
2022-08-14T03:39:12.750Z,8.27
2022-08-14T03:41:41.073Z,9.30
2022-08-14T03:45:19.412Z,8.70
2022-08-14T03:46:56.291Z,8.20
2022-08-14T03:49:28.438Z,8.50
2022-08-14T03:51:57.791Z,8.00
2022-08-14T03:54:26.932Z,7.70
2022-08-14T03:56:54.081Z,8.40
2022-08-14T03:59:21.697Z,8.70
2022-08-14T04:01:57.893Z,8.47
2022-08-14T04:04:29.284Z,9.00
2022-08-14T04:06:57.950Z,8.23
2022-08-14T04:09:27.520Z,8.53
2022-08-14T04:11:56.157Z,9.60
2022-08-14T04:14:23.736Z,9.07
2022-08-14T04:16:50.890Z,9.30
2022-08-14T04:19:18.067Z,9.20
2022-08-14T04:22:02.240Z,8.73
2022-08-14T04:24:37.647Z,8.60
2022-08-14T04:27:06.208Z,8.00
2022-08-14T04:29:36.966Z,8.07
2022-08-14T04:32:58.685Z,9.07
2022-08-14T04:34:52.925Z,9.10
2022-08-14T04:37:24.782Z,8.87
2022-08-14T04:39:57.132Z,9.17
2022-08-14T04:42:25.217Z,9.70
2022-08-14T04:44:55.671Z,10.40
2022-08-14T04:47:30.851Z,9.27
2022-08-14T04:49:58.196Z,9.43
2022-08-14T04:52:25.556Z,9.17
2022-08-14T04:54:54.683Z,9.70
2022-08-14T04:57:22.858Z,9.70
2022-08-14T04:59:50.884Z,8.77
2022-08-14T05:02:18.333Z,9.47
2022-08-14T05:04:57.072Z,9.10
2022-08-14T05:07:46.292Z,8.93
2022-08-14T05:10:16.632Z,8.40
2022-08-14T05:13:12.997Z,8.07
2022-08-14T05:15:36.744Z,8.80
2022-08-14T05:18:17.656Z,8.27
2022-08-14T05:21:55.987Z,9.67
2022-08-14T05:23:44.030Z,9.27
2022-08-14T05:26:14.786Z,8.80
2022-08-14T05:28:42.925Z,9.40
2022-08-14T05:31:10.934Z,8.87
2022-08-14T05:33:38.325Z,8.53
2022-08-14T05:36:06.880Z,8.30
2022-08-14T05:38:44.692Z,8.23
2022-08-14T05:41:12.886Z,8.20
2022-08-14T05:43:42.257Z,8.37
2022-08-14T05:46:15.333Z,9.13
2022-08-14T05:48:43.390Z,8.60
2022-08-14T05:51:10.827Z,8.50
2022-08-14T05:53:42.088Z,8.20
2022-08-14T05:56:09.751Z,8.40
2022-08-14T05:58:41.466Z,7.67
2022-08-14T06:01:10.262Z,7.57
2022-08-14T06:03:37.511Z,7.53
2022-08-14T06:06:07.814Z,8.20
2022-08-14T06:08:36.615Z,8.27
2022-08-14T06:11:09.574Z,8.43
2022-08-14T06:13:44.472Z,7.60
2022-08-14T06:16:15.149Z,7.90
2022-08-14T06:18:46.458Z,7.90
2022-08-14T06:21:15.585Z,8.23
2022-08-14T06:23:42.725Z,8.57
2022-08-14T06:26:10.899Z,8.60
2022-08-14T06:28:38.045Z,9.20
2022-08-14T06:31:08.153Z,8.57
2022-08-14T06:35:10.162Z,8.40
2022-08-14T06:36:24.380Z,7.90
2022-08-14T06:38:52.022Z,8.70
2022-08-14T06:41:20.700Z,7.90
2022-08-14T06:43:59.940Z,9.00
2022-08-14T06:46:34.467Z,8.53
2022-08-14T06:49:05.820Z,8.40
2022-08-14T06:51:38.985Z,8.60
2022-08-14T06:54:12.034Z,7.97
2022-08-14T06:56:39.232Z,7.90
2022-08-14T06:59:15.973Z,8.97
2022-08-14T07:01:47.253Z,6.80
2022-08-14T07:04:24.139Z,8.50
2022-08-14T07:06:55.451Z,8.20
2022-08-14T07:09:27.963Z,8.13
2022-08-14T07:11:55.253Z,7.87
2022-08-14T07:14:23.603Z,7.67
2022-08-14T07:16:50.719Z,7.43
2022-08-14T07:19:20.776Z,8.93
2022-08-14T07:21:48.533Z,8.83
2022-08-14T07:24:21.803Z,8.67
2022-08-14T07:26:53.545Z,8.27
2022-08-14T07:29:24.052Z,7.87
2022-08-14T07:31:53.277Z,7.57
2022-08-14T07:34:36.229Z,8.70
2022-08-14T07:37:03.941Z,8.90
2022-08-14T07:39:31.101Z,8.20
2022-08-14T07:42:01.818Z,7.53
2022-08-14T07:44:35.652Z,7.77
2022-08-14T07:47:12.917Z,7.40
2022-08-14T07:49:42.129Z,7.50
2022-08-14T07:52:10.768Z,7.20
2022-08-14T07:54:41.660Z,6.93
2022-08-14T07:57:12.551Z,7.00
2022-08-14T07:59:49.576Z,6.57
2022-08-14T08:02:19.254Z,7.20
2022-08-14T08:04:49.728Z,6.47
2022-08-14T08:07:17.051Z,6.70
2022-08-14T08:09:46.516Z,5.85
2022-08-14T08:12:20.445Z,6.10
2022-08-14T08:14:56.997Z,5.72
2022-08-14T08:17:34.514Z,5.88
2022-08-14T08:20:03.795Z,7.00
2022-08-14T08:22:32.454Z,6.70
2022-08-14T08:24:59.893Z,6.28
2022-08-14T08:27:28.008Z,6.75
2022-08-14T08:30:03.307Z,6.82
2022-08-14T08:32:38.301Z,7.05
2022-08-14T08:35:10.441Z,6.20
2022-08-14T08:37:40.353Z,6.25
2022-08-14T08:40:11.550Z,6.25
2022-08-14T08:42:52.153Z,5.47
2022-08-14T08:45:22.159Z,5.68
2022-08-14T08:47:51.301Z,5.47
2022-08-14T08:50:23.163Z,6.50
2022-08-14T08:52:58.797Z,5.20
2022-08-14T08:55:30.225Z,6.10
2022-08-14T08:57:58.515Z,5.97
2022-08-14T09:00:27.068Z,5.18
2022-08-14T09:02:55.344Z,5.13
2022-08-14T09:05:24.616Z,5.55
2022-08-14T09:07:56.502Z,5.43
2022-08-14T09:10:23.903Z,5.75
2022-08-14T09:12:54.442Z,5.22
2022-08-14T09:15:22.132Z,4.88
2022-08-14T09:17:52.622Z,4.80
2022-08-14T09:20:26.325Z,5.57
2022-08-14T09:22:59.856Z,6.28
2022-08-14T09:25:59.110Z,5.70
2022-08-14T09:28:15.189Z,5.30
2022-08-14T09:30:44.056Z,4.97
2022-08-14T09:33:31.867Z,6.03
2022-08-14T09:36:18.529Z,5.05
2022-08-14T09:38:48.835Z,5.20
2022-08-14T09:41:23.281Z,5.47
2022-08-14T09:43:55.208Z,5.10
2022-08-14T09:46:25.568Z,4.65
2022-08-14T09:48:58.644Z,5.03
2022-08-14T09:51:26.614Z,4.85
2022-08-14T09:54:19.623Z,4.20
2022-08-14T09:56:51.580Z,5.10
2022-08-14T09:59:24.178Z,4.35
2022-08-14T10:01:52.758Z,4.47
2022-08-14T10:04:34.965Z,4.03
2022-08-14T10:07:05.779Z,4.05
2022-08-14T10:09:35.074Z,3.95
2022-08-14T10:12:04.639Z,4.22
2022-08-14T10:14:35.173Z,4.40
2022-08-14T10:17:04.753Z,4.13
2022-08-14T10:19:35.264Z,3.80
2022-08-14T10:23:13.328Z,4.10
2022-08-14T10:24:53.503Z,3.92
2022-08-14T10:27:21.112Z,3.60
2022-08-14T10:29:49.042Z,4.15
2022-08-14T10:32:17.888Z,4.10
2022-08-14T10:35:04.616Z,3.55
2022-08-14T10:37:38.537Z,3.53
2022-08-14T10:40:36.904Z,3.97
2022-08-14T10:42:56.653Z,4.03
2022-08-14T10:45:25.661Z,3.67
2022-08-14T10:48:07.117Z,4.43
2022-08-14T10:50:41.351Z,3.75
2022-08-14T10:53:09.778Z,3.50
2022-08-14T10:55:39.246Z,3.83
2022-08-14T10:58:12.362Z,4.03
2022-08-14T11:00:46.890Z,4.13
2022-08-14T11:03:20.043Z,3.55
2022-08-14T11:06:12.016Z,3.78
2022-08-14T11:08:40.530Z,3.72
2022-08-14T11:11:10.581Z,4.10
2022-08-14T11:13:37.878Z,3.65
2022-08-14T11:16:05.130Z,4.00
2022-08-14T11:18:40.131Z,3.33
2022-08-14T11:21:09.453Z,3.45
2022-08-14T11:23:38.487Z,3.50
2022-08-14T11:26:08.494Z,4.22
2022-08-14T11:28:47.522Z,4.65
2022-08-14T11:31:16.704Z,3.95
2022-08-14T11:33:44.004Z,4.20
2022-08-14T11:36:18.553Z,4.75
2022-08-14T11:38:46.675Z,4.35
2022-08-14T11:41:16.887Z,4.38
2022-08-14T11:43:58.024Z,4.55
2022-08-14T11:46:33.941Z,5.28
2022-08-14T11:49:05.961Z,4.47
2022-08-14T11:51:50.705Z,5.85
2022-08-14T11:54:20.356Z,5.40
2022-08-14T11:57:01.260Z,4.78
2022-08-14T11:59:32.979Z,4.70
2022-08-14T12:02:08.902Z,4.72
2022-08-14T12:04:56.150Z,4.20
2022-08-14T12:07:25.134Z,4.68
2022-08-14T12:09:56.265Z,5.03
2022-08-14T12:12:36.217Z,4.45
2022-08-14T12:15:06.838Z,5.45
2022-08-14T12:17:49.481Z,4.90
2022-08-14T12:20:32.286Z,4.15
2022-08-14T12:23:00.549Z,4.00
2022-08-14T12:25:28.093Z,4.05
2022-08-14T12:27:59.255Z,3.90
2022-08-14T12:30:38.379Z,3.83
2022-08-14T12:33:19.789Z,4.00
2022-08-14T12:35:51.013Z,4.47
2022-08-14T12:38:31.901Z,4.43
2022-08-14T12:40:59.129Z,4.63
2022-08-14T12:43:26.308Z,4.38
2022-08-14T12:45:58.464Z,4.40
2022-08-14T12:48:32.059Z,4.25
2022-08-14T12:51:00.182Z,3.80
2022-08-14T12:53:38.490Z,3.97
2022-08-14T12:56:21.655Z,4.30
2022-08-14T12:58:54.344Z,4.07
2022-08-14T13:01:26.174Z,4.13
2022-08-14T13:04:03.684Z,3.97
2022-08-14T13:06:34.053Z,4.28
2022-08-14T13:09:01.277Z,4.22
2022-08-14T13:11:30.433Z,4.10
2022-08-14T13:13:59.883Z,4.28
2022-08-14T13:16:38.021Z,4.25
2022-08-14T13:19:05.825Z,3.50
2022-08-14T13:22:04.908Z,3.63
2022-08-14T13:24:27.876Z,4.03
2022-08-14T13:26:56.555Z,4.03
2022-08-14T13:29:24.940Z,3.63
2022-08-14T13:31:55.082Z,4.05
2022-08-14T13:34:23.319Z,4.10
2022-08-14T13:36:59.381Z,4.07
2022-08-14T13:39:31.639Z,3.88
2022-08-14T13:42:04.537Z,4.20
2022-08-14T13:44:35.638Z,3.50
2022-08-14T13:47:04.290Z,4.07
2022-08-14T13:49:31.413Z,4.00
2022-08-14T13:52:04.314Z,4.38
2022-08-14T13:54:55.557Z,4.20
2022-08-14T13:57:30.153Z,4.20
2022-08-14T14:00:01.632Z,3.97
2022-08-14T14:02:41.660Z,4.05
2022-08-14T14:05:14.825Z,4.10
2022-08-14T14:07:45.650Z,3.60
2022-08-14T14:10:15.083Z,4.40
2022-08-14T14:12:48.991Z,3.70
2022-08-14T14:15:33.823Z,4.45
2022-08-14T14:18:29.456Z,3.65
2022-08-14T14:20:59.636Z,4.03
2022-08-14T14:23:27.880Z,4.22
2022-08-14T14:25:57.950Z,4.10
2022-08-14T14:28:29.861Z,3.60
2022-08-14T14:31:01.389Z,4.68
2022-08-14T14:33:51.086Z,3.85
2022-08-14T14:36:22.104Z,4.20
2022-08-14T14:38:52.726Z,4.13
2022-08-14T14:41:21.341Z,4.20
2022-08-14T14:43:51.689Z,4.03
2022-08-14T14:46:20.688Z,4.15
2022-08-14T14:48:54.024Z,4.32
2022-08-14T14:51:22.427Z,4.50
2022-08-14T14:53:49.662Z,4.30
2022-08-14T14:56:50.166Z,4.22
2022-08-14T14:59:04.586Z,4.35
2022-08-14T15:01:32.893Z,4.35
2022-08-14T15:04:07.789Z,3.63
2022-08-14T15:06:35.374Z,4.00
2022-08-14T15:09:04.812Z,3.90
2022-08-14T15:11:36.000Z,3.85
2022-08-14T15:14:55.855Z,4.40
2022-08-14T15:16:51.584Z,4.07
2022-08-14T15:19:20.097Z,3.80
2022-08-14T15:21:47.218Z,4.07
2022-08-14T15:24:20.281Z,4.00
2022-08-14T15:26:48.224Z,4.13
2022-08-14T15:29:15.360Z,3.95
2022-08-14T15:31:42.494Z,4.45
2022-08-14T15:34:43.056Z,3.90
2022-08-14T15:36:58.693Z,4.45
2022-08-14T15:39:25.955Z,4.05
2022-08-14T15:41:57.103Z,4.10
2022-08-14T15:44:28.868Z,4.15
2022-08-14T15:47:01.408Z,3.90
2022-08-14T15:49:34.463Z,4.13
2022-08-14T15:52:04.294Z,3.80
2022-08-14T15:54:32.268Z,3.92
2022-08-14T15:57:00.264Z,4.15
2022-08-14T15:59:28.144Z,4.00
2022-08-14T16:01:55.881Z,4.45
2022-08-14T16:04:23.665Z,3.85
2022-08-14T16:06:55.624Z,4.38
2022-08-14T16:09:24.345Z,4.40
2022-08-14T16:11:53.936Z,3.60
2022-08-14T16:14:21.765Z,3.83
2022-08-14T16:17:00.753Z,3.65
2022-08-14T16:19:28.934Z,3.92
2022-08-14T16:22:01.709Z,4.05
2022-08-14T16:24:59.892Z,3.90
2022-08-14T16:27:34.257Z,3.78
2022-08-14T16:30:07.845Z,3.33
2022-08-14T16:32:55.036Z,3.85
2022-08-14T16:35:23.299Z,3.33
2022-08-14T16:37:50.470Z,3.30
2022-08-14T16:43:03.936Z,3.40
2022-08-14T16:45:43.900Z,3.70
2022-08-14T16:48:55.599Z,3.95
2022-08-14T16:50:58.535Z,3.22
2022-08-14T16:53:28.046Z,3.10
2022-08-14T16:56:23.023Z,3.20
2022-08-14T16:59:07.337Z,4.33
2022-08-14T17:01:35.441Z,3.93
2022-08-14T17:04:06.306Z,3.60
2022-08-14T17:06:42.891Z,3.67
2022-08-14T17:09:25.490Z,3.00
2022-08-14T17:11:56.725Z,3.50
2022-08-14T17:14:26.809Z,3.33
2022-08-14T17:16:58.368Z,3.87
2022-08-14T17:19:25.988Z,3.70
2022-08-14T17:21:58.424Z,3.53
2022-08-14T17:24:55.769Z,3.80
2022-08-14T17:27:18.283Z,3.60
2022-08-14T17:29:56.172Z,3.47
2022-08-14T17:32:43.928Z,4.00
2022-08-14T17:35:16.431Z,3.60
2022-08-14T17:37:45.366Z,4.17
2022-08-14T17:40:16.013Z,3.87
2022-08-14T17:42:51.301Z,4.43
2022-08-14T17:45:27.073Z,4.20
2022-08-14T17:47:56.893Z,4.13
2022-08-14T17:51:00.509Z,3.60
2022-08-14T17:53:30.324Z,4.10
2022-08-14T17:56:02.453Z,4.40
2022-08-14T17:58:42.074Z,3.60
2022-08-14T18:01:13.346Z,3.93
2022-08-14T18:03:50.369Z,4.10
2022-08-14T18:06:38.660Z,4.53
2022-08-14T18:09:24.612Z,3.63
2022-08-14T18:11:53.677Z,4.03
2022-08-14T18:14:32.913Z,4.13
2022-08-14T18:17:10.974Z,3.67
2022-08-14T18:19:41.664Z,4.30
2022-08-14T18:22:32.943Z,3.80
2022-08-14T18:24:57.103Z,4.33
2022-08-14T18:27:33.144Z,4.00
2022-08-14T18:30:00.616Z,3.90
2022-08-14T18:32:55.451Z,4.30
2022-08-14T18:35:23.823Z,4.13
2022-08-14T18:38:25.963Z,4.00
2022-08-14T18:41:20.653Z,4.60
2022-08-14T18:43:59.425Z,4.30
2022-08-14T18:46:59.612Z,4.27
2022-08-14T18:49:15.696Z,4.40
2022-08-14T18:51:46.008Z,3.50
2022-08-14T18:54:27.294Z,4.33
2022-08-14T18:56:58.552Z,4.30
2022-08-14T18:59:29.628Z,4.90
2022-08-14T19:02:21.553Z,4.80
2022-08-14T19:04:59.593Z,4.37
2022-08-14T19:07:29.751Z,3.97
2022-08-14T19:10:02.213Z,4.40
2022-08-14T19:12:49.038Z,4.37
2022-08-14T19:15:19.198Z,4.40
2022-08-14T19:18:10.978Z,4.60
2022-08-14T19:20:52.768Z,4.13
2022-08-14T19:23:42.431Z,4.90
2022-08-14T19:26:36.105Z,4.23
2022-08-14T19:29:23.814Z,4.50
2022-08-14T19:31:55.787Z,5.13
2022-08-14T19:34:40.365Z,4.70
2022-08-14T19:37:36.984Z,4.60
2022-08-14T19:40:15.404Z,5.10
2022-08-14T19:42:47.556Z,4.53
2022-08-14T19:45:16.395Z,5.30
2022-08-14T19:47:49.872Z,5.07
2022-08-14T19:50:38.613Z,5.03
2022-08-14T19:53:11.311Z,4.70
2022-08-14T19:55:39.412Z,5.47
2022-08-14T19:58:12.962Z,4.90
2022-08-14T20:00:51.670Z,5.03
2022-08-14T20:03:23.903Z,5.27
2022-08-14T20:05:58.519Z,5.37
2022-08-14T20:09:05.914Z,5.83
2022-08-14T20:12:02.063Z,5.43
2022-08-14T20:14:20.388Z,5.07
2022-08-14T20:16:51.753Z,5.23
2022-08-14T20:19:21.033Z,4.60
2022-08-14T20:22:00.709Z,4.70
2022-08-14T20:24:41.306Z,4.50
2022-08-14T20:27:20.218Z,4.93
2022-08-14T20:30:28.199Z,5.03
2022-08-14T20:32:48.839Z,5.83
2022-08-14T20:35:24.003Z,5.70
2022-08-14T20:38:00.092Z,5.23
2022-08-14T20:40:50.312Z,5.50
2022-08-14T20:43:18.802Z,5.80
2022-08-14T20:45:52.443Z,5.20
2022-08-14T20:48:52.642Z,5.00
2022-08-14T20:51:20.560Z,5.80
2022-08-14T20:53:57.656Z,5.30
2022-08-14T20:56:29.100Z,6.13
2022-08-14T20:58:57.629Z,5.20
2022-08-14T21:01:36.410Z,5.70
2022-08-14T21:04:11.911Z,5.93
2022-08-14T21:07:23.469Z,5.37
2022-08-14T21:10:04.630Z,5.03
2022-08-14T21:12:34.709Z,5.70
2022-08-14T21:15:03.626Z,5.00
2022-08-14T21:17:47.195Z,5.67
2022-08-14T21:20:25.976Z,5.70
2022-08-14T21:23:00.201Z,5.80
2022-08-14T21:25:31.532Z,5.63
2022-08-14T21:28:00.254Z,6.10
2022-08-14T21:30:51.334Z,6.07
2022-08-14T21:33:16.460Z,5.83
2022-08-14T21:35:44.041Z,5.77
2022-08-14T21:38:11.203Z,6.23
2022-08-14T21:40:46.562Z,6.03
2022-08-14T21:43:18.022Z,6.60
2022-08-14T21:45:53.100Z,5.80
2022-08-14T21:48:25.328Z,5.60
2022-08-14T21:50:59.877Z,6.40
2022-08-14T21:53:31.001Z,6.17
2022-08-14T21:55:58.602Z,6.00
2022-08-14T21:58:51.987Z,5.77
2022-08-14T22:01:13.583Z,5.97
2022-08-14T22:03:46.843Z,6.63
2022-08-14T22:06:21.790Z,6.00
2022-08-14T22:08:56.675Z,6.50
2022-08-14T22:11:23.833Z,6.37
2022-08-14T22:13:52.036Z,6.10
2022-08-14T22:17:11.885Z,6.40
2022-08-14T22:19:11.874Z,6.57
2022-08-14T22:21:44.097Z,5.77
2022-08-14T22:24:12.288Z,6.33
2022-08-14T22:26:59.612Z,6.40
2022-08-14T22:29:26.931Z,6.00
2022-08-14T22:31:54.086Z,6.67
2022-08-14T22:34:23.783Z,6.67
2022-08-14T22:36:51.116Z,7.00
2022-08-14T22:39:19.079Z,7.43
2022-08-14T22:42:21.005Z,6.10
2022-08-14T22:44:48.846Z,7.20
2022-08-14T22:47:15.961Z,6.80
2022-08-14T22:50:31.049Z,7.40
2022-08-14T22:52:33.635Z,6.73
2022-08-14T22:55:06.171Z,5.60
2022-08-14T22:57:37.849Z,6.30
2022-08-14T23:00:11.845Z,6.13
2022-08-14T23:02:40.264Z,6.30
2022-08-14T23:05:09.346Z,5.93
2022-08-14T23:08:59.490Z,5.30
2022-08-14T23:10:31.774Z,5.67
2022-08-14T23:13:01.869Z,5.53
2022-08-14T23:15:30.367Z,5.03
2022-08-14T23:17:57.771Z,6.00
2022-08-14T23:20:29.485Z,5.87
2022-08-14T23:22:57.484Z,5.80
2022-08-14T23:25:57.558Z,5.93
2022-08-14T23:28:34.127Z,6.13
2022-08-14T23:31:02.082Z,6.00
2022-08-14T23:33:29.179Z,5.70
2022-08-14T23:35:59.325Z,5.20
2022-08-14T23:38:30.794Z,5.80
2022-08-14T23:40:58.803Z,6.10
2022-08-14T23:43:31.155Z,5.93
2022-08-14T23:45:59.610Z,5.80
2022-08-14T23:48:28.550Z,6.37
2022-08-14T23:50:57.793Z,6.50
2022-08-14T23:53:47.421Z,6.27
2022-08-14T23:56:14.944Z,6.83
2022-08-14T23:58:42.309Z,6.17
